sensor_id;sensor_type;location;lat;lon;timestamp;P1;durP1;ratioP1;P2;durP2;ratioP2
27223;SDS011;14965;50.660;13.226;2023-07-22T00:00:28;9.25;;;5.43;;
27223;SDS011;14965;50.660;13.226;2023-07-22T00:02:54;7.93;;;5.82;;
27223;SDS011;14965;50.660;13.226;2023-07-22T00:05:21;11.32;;;6.05;;
27223;SDS011;14965;50.660;13.226;2023-07-22T00:07:47;6.25;;;5.50;;
27223;SDS011;14965;50.660;13.226;2023-07-22T00:10:14;8.82;;;5.65;;
27223;SDS011;14965;50.660;13.226;2023-07-22T00:12:40;8.40;;;5.70;;
27223;SDS011;14965;50.660;13.226;2023-07-22T00:15:06;8.30;;;6.10;;
27223;SDS011;14965;50.660;13.226;2023-07-22T00:17:34;6.50;;;5.80;;
27223;SDS011;14965;50.660;13.226;2023-07-22T00:20:00;8.95;;;5.90;;
27223;SDS011;14965;50.660;13.226;2023-07-22T00:22:27;8.23;;;5.78;;
27223;SDS011;14965;50.660;13.226;2023-07-22T00:24:53;9.73;;;6.38;;
27223;SDS011;14965;50.660;13.226;2023-07-22T00:27:19;8.73;;;5.72;;
27223;SDS011;14965;50.660;13.226;2023-07-22T00:29:45;11.88;;;6.20;;
27223;SDS011;14965;50.660;13.226;2023-07-22T00:32:11;7.03;;;5.80;;
27223;SDS011;14965;50.660;13.226;2023-07-22T00:34:39;11.77;;;5.93;;
27223;SDS011;14965;50.660;13.226;2023-07-22T00:37:05;9.75;;;6.68;;
27223;SDS011;14965;50.660;13.226;2023-07-22T00:39:32;9.57;;;6.15;;
27223;SDS011;14965;50.660;13.226;2023-07-22T00:41:58;8.65;;;5.45;;
27223;SDS011;14965;50.660;13.226;2023-07-22T00:44:24;7.22;;;5.75;;
27223;SDS011;14965;50.660;13.226;2023-07-22T00:46:51;8.90;;;6.63;;
27223;SDS011;14965;50.660;13.226;2023-07-22T00:49:19;9.95;;;6.03;;
27223;SDS011;14965;50.660;13.226;2023-07-22T00:51:45;9.80;;;6.32;;
27223;SDS011;14965;50.660;13.226;2023-07-22T00:54:11;6.57;;;5.57;;
27223;SDS011;14965;50.660;13.226;2023-07-22T00:56:39;10.18;;;6.35;;
27223;SDS011;14965;50.660;13.226;2023-07-22T01:01:32;12.30;;;5.90;;
27223;SDS011;14965;50.660;13.226;2023-07-22T01:03:58;11.45;;;6.68;;
27223;SDS011;14965;50.660;13.226;2023-07-22T01:06:24;7.13;;;6.15;;
27223;SDS011;14965;50.660;13.226;2023-07-22T01:08:51;9.80;;;6.80;;
27223;SDS011;14965;50.660;13.226;2023-07-22T01:11:17;11.20;;;6.28;;
27223;SDS011;14965;50.660;13.226;2023-07-22T01:13:44;9.57;;;6.78;;
27223;SDS011;14965;50.660;13.226;2023-07-22T01:16:10;8.05;;;6.75;;
27223;SDS011;14965;50.660;13.226;2023-07-22T01:18:37;9.38;;;6.95;;
27223;SDS011;14965;50.660;13.226;2023-07-22T01:21:04;8.55;;;6.47;;
27223;SDS011;14965;50.660;13.226;2023-07-22T01:23:34;10.52;;;6.25;;
27223;SDS011;14965;50.660;13.226;2023-07-22T01:26:01;7.18;;;6.07;;
27223;SDS011;14965;50.660;13.226;2023-07-22T01:28:28;10.80;;;7.25;;
27223;SDS011;14965;50.660;13.226;2023-07-22T01:30:54;9.75;;;7.65;;
27223;SDS011;14965;50.660;13.226;2023-07-22T01:33:20;8.48;;;6.68;;
27223;SDS011;14965;50.660;13.226;2023-07-22T01:35:46;10.60;;;7.57;;
27223;SDS011;14965;50.660;13.226;2023-07-22T01:38:12;16.90;;;8.80;;
27223;SDS011;14965;50.660;13.226;2023-07-22T01:40:39;11.60;;;7.20;;
27223;SDS011;14965;50.660;13.226;2023-07-22T01:43:05;11.68;;;7.82;;
27223;SDS011;14965;50.660;13.226;2023-07-22T01:45:31;9.07;;;7.25;;
27223;SDS011;14965;50.660;13.226;2023-07-22T01:47:57;12.60;;;7.72;;
27223;SDS011;14965;50.660;13.226;2023-07-22T01:50:23;9.20;;;7.63;;
27223;SDS011;14965;50.660;13.226;2023-07-22T01:52:49;15.65;;;8.32;;
27223;SDS011;14965;50.660;13.226;2023-07-22T01:55:15;17.60;;;9.35;;
27223;SDS011;14965;50.660;13.226;2023-07-22T01:57:43;11.00;;;8.70;;
27223;SDS011;14965;50.660;13.226;2023-07-22T02:00:09;10.98;;;8.05;;
27223;SDS011;14965;50.660;13.226;2023-07-22T02:02:36;11.10;;;7.45;;
27223;SDS011;14965;50.660;13.226;2023-07-22T02:05:02;14.68;;;7.55;;
27223;SDS011;14965;50.660;13.226;2023-07-22T02:07:29;12.30;;;8.32;;
27223;SDS011;14965;50.660;13.226;2023-07-22T02:09:55;12.95;;;8.63;;
27223;SDS011;14965;50.660;13.226;2023-07-22T02:12:21;15.98;;;8.13;;
27223;SDS011;14965;50.660;13.226;2023-07-22T02:14:49;14.80;;;8.82;;
27223;SDS011;14965;50.660;13.226;2023-07-22T02:17:15;11.90;;;8.32;;
27223;SDS011;14965;50.660;13.226;2023-07-22T02:19:41;11.77;;;7.95;;
27223;SDS011;14965;50.660;13.226;2023-07-22T02:22:07;11.63;;;8.55;;
27223;SDS011;14965;50.660;13.226;2023-07-22T02:24:33;12.07;;;7.88;;
27223;SDS011;14965;50.660;13.226;2023-07-22T02:26:59;11.88;;;7.97;;
27223;SDS011;14965;50.660;13.226;2023-07-22T02:29:25;11.85;;;8.38;;
27223;SDS011;14965;50.660;13.226;2023-07-22T02:31:52;9.25;;;7.63;;
27223;SDS011;14965;50.660;13.226;2023-07-22T02:34:18;13.98;;;8.65;;
27223;SDS011;14965;50.660;13.226;2023-07-22T02:36:44;11.75;;;8.32;;
27223;SDS011;14965;50.660;13.226;2023-07-22T02:39:10;13.18;;;8.32;;
27223;SDS011;14965;50.660;13.226;2023-07-22T02:41:36;12.48;;;8.65;;
27223;SDS011;14965;50.660;13.226;2023-07-22T02:44:02;11.93;;;9.02;;
27223;SDS011;14965;50.660;13.226;2023-07-22T02:46:28;11.07;;;8.38;;
27223;SDS011;14965;50.660;13.226;2023-07-22T02:48:56;10.25;;;8.00;;
27223;SDS011;14965;50.660;13.226;2023-07-22T02:51:22;10.45;;;8.38;;
27223;SDS011;14965;50.660;13.226;2023-07-22T02:53:48;15.57;;;9.20;;
27223;SDS011;14965;50.660;13.226;2023-07-22T02:56:14;15.80;;;8.60;;
27223;SDS011;14965;50.660;13.226;2023-07-22T02:58:40;13.40;;;8.38;;
27223;SDS011;14965;50.660;13.226;2023-07-22T03:01:06;13.40;;;9.25;;
27223;SDS011;14965;50.660;13.226;2023-07-22T03:03:32;9.88;;;8.20;;
27223;SDS011;14965;50.660;13.226;2023-07-22T03:05:59;13.35;;;8.80;;
27223;SDS011;14965;50.660;13.226;2023-07-22T03:08:25;14.70;;;9.40;;
27223;SDS011;14965;50.660;13.226;2023-07-22T03:10:51;15.18;;;8.85;;
27223;SDS011;14965;50.660;13.226;2023-07-22T03:13:17;13.02;;;8.88;;
27223;SDS011;14965;50.660;13.226;2023-07-22T03:15:43;11.32;;;8.50;;
27223;SDS011;14965;50.660;13.226;2023-07-22T03:18:10;12.95;;;7.88;;
27223;SDS011;14965;50.660;13.226;2023-07-22T03:20:36;10.70;;;8.23;;
27223;SDS011;14965;50.660;13.226;2023-07-22T03:23:04;13.75;;;8.85;;
27223;SDS011;14965;50.660;13.226;2023-07-22T03:25:31;14.55;;;8.73;;
27223;SDS011;14965;50.660;13.226;2023-07-22T03:27:58;13.18;;;9.32;;
27223;SDS011;14965;50.660;13.226;2023-07-22T03:30:28;12.32;;;8.55;;
27223;SDS011;14965;50.660;13.226;2023-07-22T03:32:54;12.73;;;9.25;;
27223;SDS011;14965;50.660;13.226;2023-07-22T03:35:20;13.00;;;8.82;;
27223;SDS011;14965;50.660;13.226;2023-07-22T03:37:47;12.00;;;8.55;;
27223;SDS011;14965;50.660;13.226;2023-07-22T03:40:14;12.82;;;8.20;;
27223;SDS011;14965;50.660;13.226;2023-07-22T03:42:40;13.18;;;8.25;;
27223;SDS011;14965;50.660;13.226;2023-07-22T03:45:07;14.85;;;8.40;;
27223;SDS011;14965;50.660;13.226;2023-07-22T03:47:33;10.98;;;8.52;;
27223;SDS011;14965;50.660;13.226;2023-07-22T03:49:59;9.82;;;7.53;;
27223;SDS011;14965;50.660;13.226;2023-07-22T03:52:25;10.60;;;8.30;;
27223;SDS011;14965;50.660;13.226;2023-07-22T03:54:51;14.10;;;8.85;;
27223;SDS011;14965;50.660;13.226;2023-07-22T03:57:19;12.63;;;8.43;;
27223;SDS011;14965;50.660;13.226;2023-07-22T03:59:50;15.68;;;9.20;;
27223;SDS011;14965;50.660;13.226;2023-07-22T04:02:16;13.75;;;9.65;;
27223;SDS011;14965;50.660;13.226;2023-07-22T04:04:42;11.18;;;9.15;;
27223;SDS011;14965;50.660;13.226;2023-07-22T04:07:08;13.75;;;8.02;;
27223;SDS011;14965;50.660;13.226;2023-07-22T04:09:35;13.43;;;9.15;;
27223;SDS011;14965;50.660;13.226;2023-07-22T04:12:01;16.08;;;9.23;;
27223;SDS011;14965;50.660;13.226;2023-07-22T04:14:29;11.43;;;8.95;;
27223;SDS011;14965;50.660;13.226;2023-07-22T04:16:55;13.75;;;9.95;;
27223;SDS011;14965;50.660;13.226;2023-07-22T04:19:21;16.65;;;9.13;;
27223;SDS011;14965;50.660;13.226;2023-07-22T04:21:47;14.98;;;9.68;;
27223;SDS011;14965;50.660;13.226;2023-07-22T04:24:13;13.23;;;9.55;;
27223;SDS011;14965;50.660;13.226;2023-07-22T04:26:40;15.32;;;9.52;;
27223;SDS011;14965;50.660;13.226;2023-07-22T04:29:08;16.90;;;9.75;;
27223;SDS011;14965;50.660;13.226;2023-07-22T04:31:38;13.65;;;9.85;;
27223;SDS011;14965;50.660;13.226;2023-07-22T04:34:04;13.23;;;9.63;;
27223;SDS011;14965;50.660;13.226;2023-07-22T04:36:30;14.93;;;10.55;;
27223;SDS011;14965;50.660;13.226;2023-07-22T04:38:56;15.75;;;10.05;;
27223;SDS011;14965;50.660;13.226;2023-07-22T04:41:22;11.23;;;9.70;;
27223;SDS011;14965;50.660;13.226;2023-07-22T04:43:49;14.52;;;10.38;;
27223;SDS011;14965;50.660;13.226;2023-07-22T04:46:16;13.48;;;10.55;;
27223;SDS011;14965;50.660;13.226;2023-07-22T04:48:43;13.15;;;10.35;;
27223;SDS011;14965;50.660;13.226;2023-07-22T04:51:09;17.48;;;11.98;;
27223;SDS011;14965;50.660;13.226;2023-07-22T04:53:35;12.18;;;10.18;;
27223;SDS011;14965;50.660;13.226;2023-07-22T04:56:01;15.50;;;10.45;;
27223;SDS011;14965;50.660;13.226;2023-07-22T04:58:27;15.05;;;11.18;;
27223;SDS011;14965;50.660;13.226;2023-07-22T05:00:53;15.93;;;10.75;;
27223;SDS011;14965;50.660;13.226;2023-07-22T05:03:19;12.15;;;9.15;;
27223;SDS011;14965;50.660;13.226;2023-07-22T05:05:47;13.15;;;9.65;;
27223;SDS011;14965;50.660;13.226;2023-07-22T05:08:14;12.13;;;10.03;;
27223;SDS011;14965;50.660;13.226;2023-07-22T05:10:39;13.50;;;9.40;;
27223;SDS011;14965;50.660;13.226;2023-07-22T05:13:05;12.77;;;8.77;;
27223;SDS011;14965;50.660;13.226;2023-07-22T05:15:32;13.57;;;9.75;;
27223;SDS011;14965;50.660;13.226;2023-07-22T05:17:58;16.52;;;10.57;;
27223;SDS011;14965;50.660;13.226;2023-07-22T05:20:23;11.85;;;9.48;;
27223;SDS011;14965;50.660;13.226;2023-07-22T05:22:51;17.05;;;10.75;;
27223;SDS011;14965;50.660;13.226;2023-07-22T05:25:17;11.32;;;9.13;;
27223;SDS011;14965;50.660;13.226;2023-07-22T05:27:43;18.65;;;10.63;;
27223;SDS011;14965;50.660;13.226;2023-07-22T05:30:09;16.67;;;10.70;;
27223;SDS011;14965;50.660;13.226;2023-07-22T05:32:35;13.82;;;10.05;;
27223;SDS011;14965;50.660;13.226;2023-07-22T05:35:01;14.30;;;11.02;;
27223;SDS011;14965;50.660;13.226;2023-07-22T05:37:28;20.60;;;12.50;;
27223;SDS011;14965;50.660;13.226;2023-07-22T05:39:55;11.40;;;9.65;;
27223;SDS011;14965;50.660;13.226;2023-07-22T05:42:21;15.27;;;10.93;;
27223;SDS011;14965;50.660;13.226;2023-07-22T05:44:47;17.63;;;11.88;;
27223;SDS011;14965;50.660;13.226;2023-07-22T05:47:13;17.70;;;11.30;;
27223;SDS011;14965;50.660;13.226;2023-07-22T05:49:39;12.40;;;10.38;;
27223;SDS011;14965;50.660;13.226;2023-07-22T05:52:06;15.25;;;10.85;;
27223;SDS011;14965;50.660;13.226;2023-07-22T05:54:32;14.27;;;10.30;;
27223;SDS011;14965;50.660;13.226;2023-07-22T05:57:00;14.07;;;10.55;;
27223;SDS011;14965;50.660;13.226;2023-07-22T05:59:25;16.95;;;10.82;;
27223;SDS011;14965;50.660;13.226;2023-07-22T06:01:51;14.98;;;10.65;;
27223;SDS011;14965;50.660;13.226;2023-07-22T06:04:17;17.15;;;10.95;;
27223;SDS011;14965;50.660;13.226;2023-07-22T06:06:43;15.43;;;10.43;;
27223;SDS011;14965;50.660;13.226;2023-07-22T06:09:09;15.88;;;10.38;;
27223;SDS011;14965;50.660;13.226;2023-07-22T06:11:35;15.73;;;10.75;;
27223;SDS011;14965;50.660;13.226;2023-07-22T06:14:03;16.27;;;10.18;;
27223;SDS011;14965;50.660;13.226;2023-07-22T06:16:29;16.85;;;9.52;;
27223;SDS011;14965;50.660;13.226;2023-07-22T06:18:55;16.08;;;10.13;;
27223;SDS011;14965;50.660;13.226;2023-07-22T06:21:21;15.38;;;10.73;;
27223;SDS011;14965;50.660;13.226;2023-07-22T06:23:47;14.30;;;10.02;;
27223;SDS011;14965;50.660;13.226;2023-07-22T06:26:13;15.00;;;10.18;;
27223;SDS011;14965;50.660;13.226;2023-07-22T06:28:39;15.07;;;10.05;;
27223;SDS011;14965;50.660;13.226;2023-07-22T06:31:06;14.50;;;10.15;;
27223;SDS011;14965;50.660;13.226;2023-07-22T06:33:33;16.70;;;10.48;;
27223;SDS011;14965;50.660;13.226;2023-07-22T06:35:59;16.40;;;10.10;;
27223;SDS011;14965;50.660;13.226;2023-07-22T06:38:25;14.48;;;10.13;;
27223;SDS011;14965;50.660;13.226;2023-07-22T06:40:52;13.43;;;9.38;;
27223;SDS011;14965;50.660;13.226;2023-07-22T06:43:18;20.70;;;11.50;;
27223;SDS011;14965;50.660;13.226;2023-07-22T06:45:44;17.90;;;10.80;;
27223;SDS011;14965;50.660;13.226;2023-07-22T06:48:11;15.02;;;10.35;;
27223;SDS011;14965;50.660;13.226;2023-07-22T06:50:37;17.15;;;10.23;;
27223;SDS011;14965;50.660;13.226;2023-07-22T06:53:03;15.57;;;10.98;;
27223;SDS011;14965;50.660;13.226;2023-07-22T06:55:29;18.55;;;11.98;;
27223;SDS011;14965;50.660;13.226;2023-07-22T06:57:55;16.55;;;11.85;;
27223;SDS011;14965;50.660;13.226;2023-07-22T07:00:21;23.58;;;14.50;;
27223;SDS011;14965;50.660;13.226;2023-07-22T07:02:47;26.30;;;15.65;;
27223;SDS011;14965;50.660;13.226;2023-07-22T07:05:15;24.95;;;13.43;;
27223;SDS011;14965;50.660;13.226;2023-07-22T07:07:41;19.70;;;12.55;;
27223;SDS011;14965;50.660;13.226;2023-07-22T07:10:07;18.67;;;12.20;;
27223;SDS011;14965;50.660;13.226;2023-07-22T07:12:33;17.15;;;11.90;;
27223;SDS011;14965;50.660;13.226;2023-07-22T07:14:59;18.90;;;12.27;;
27223;SDS011;14965;50.660;13.226;2023-07-22T07:17:25;19.88;;;12.23;;
27223;SDS011;14965;50.660;13.226;2023-07-22T07:19:51;17.42;;;10.93;;
27223;SDS011;14965;50.660;13.226;2023-07-22T07:22:18;19.67;;;10.65;;
27223;SDS011;14965;50.660;13.226;2023-07-22T07:24:44;18.13;;;11.98;;
27223;SDS011;14965;50.660;13.226;2023-07-22T07:27:10;21.88;;;11.80;;
27223;SDS011;14965;50.660;13.226;2023-07-22T07:29:36;16.77;;;11.55;;
27223;SDS011;14965;50.660;13.226;2023-07-22T07:32:02;20.80;;;11.98;;
27223;SDS011;14965;50.660;13.226;2023-07-22T07:34:29;19.13;;;11.38;;
27223;SDS011;14965;50.660;13.226;2023-07-22T07:36:55;18.75;;;11.70;;
27223;SDS011;14965;50.660;13.226;2023-07-22T07:39:22;18.15;;;11.05;;
27223;SDS011;14965;50.660;13.226;2023-07-22T07:41:48;15.93;;;11.57;;
27223;SDS011;14965;50.660;13.226;2023-07-22T07:44:14;17.85;;;11.95;;
27223;SDS011;14965;50.660;13.226;2023-07-22T07:46:40;16.73;;;11.27;;
27223;SDS011;14965;50.660;13.226;2023-07-22T07:49:06;19.20;;;10.25;;
27223;SDS011;14965;50.660;13.226;2023-07-22T07:51:32;16.05;;;10.68;;
27223;SDS011;14965;50.660;13.226;2023-07-22T07:53:59;13.27;;;9.43;;
27223;SDS011;14965;50.660;13.226;2023-07-22T07:56:26;14.40;;;9.57;;
27223;SDS011;14965;50.660;13.226;2023-07-22T07:58:53;16.63;;;11.00;;
27223;SDS011;14965;50.660;13.226;2023-07-22T08:01:19;17.52;;;9.65;;
27223;SDS011;14965;50.660;13.226;2023-07-22T08:03:45;12.45;;;8.95;;
27223;SDS011;14965;50.660;13.226;2023-07-22T08:06:11;14.52;;;9.35;;
27223;SDS011;14965;50.660;13.226;2023-07-22T08:08:38;13.55;;;8.52;;
27223;SDS011;14965;50.660;13.226;2023-07-22T08:11:06;12.57;;;9.00;;
27223;SDS011;14965;50.660;13.226;2023-07-22T08:13:36;11.27;;;8.90;;
27223;SDS011;14965;50.660;13.226;2023-07-22T08:16:03;12.75;;;8.25;;
27223;SDS011;14965;50.660;13.226;2023-07-22T08:18:31;13.73;;;9.00;;
27223;SDS011;14965;50.660;13.226;2023-07-22T08:20:59;14.18;;;8.43;;
27223;SDS011;14965;50.660;13.226;2023-07-22T08:23:26;15.45;;;8.98;;
27223;SDS011;14965;50.660;13.226;2023-07-22T08:25:52;13.02;;;8.93;;
27223;SDS011;14965;50.660;13.226;2023-07-22T08:28:18;14.82;;;8.23;;
27223;SDS011;14965;50.660;13.226;2023-07-22T08:30:45;13.18;;;8.30;;
27223;SDS011;14965;50.660;13.226;2023-07-22T08:33:13;12.02;;;8.23;;
27223;SDS011;14965;50.660;13.226;2023-07-22T08:35:39;10.75;;;7.13;;
27223;SDS011;14965;50.660;13.226;2023-07-22T08:38:06;10.57;;;6.90;;
27223;SDS011;14965;50.660;13.226;2023-07-22T08:40:33;9.80;;;6.50;;
27223;SDS011;14965;50.660;13.226;2023-07-22T08:42:59;8.35;;;6.53;;
27223;SDS011;14965;50.660;13.226;2023-07-22T08:45:28;10.75;;;6.20;;
27223;SDS011;14965;50.660;13.226;2023-07-22T08:50:26;8.90;;;4.47;;
27223;SDS011;14965;50.660;13.226;2023-07-22T08:52:55;11.30;;;4.63;;
27223;SDS011;14965;50.660;13.226;2023-07-22T08:55:23;7.63;;;4.57;;
27223;SDS011;14965;50.660;13.226;2023-07-22T08:57:50;6.30;;;4.40;;
27223;SDS011;14965;50.660;13.226;2023-07-22T09:00:18;7.03;;;4.78;;
27223;SDS011;14965;50.660;13.226;2023-07-22T09:02:45;6.38;;;4.80;;
27223;SDS011;14965;50.660;13.226;2023-07-22T09:05:12;7.57;;;4.80;;
27223;SDS011;14965;50.660;13.226;2023-07-22T09:07:38;7.07;;;5.05;;
27223;SDS011;14965;50.660;13.226;2023-07-22T09:10:06;5.20;;;4.35;;
27223;SDS011;14965;50.660;13.226;2023-07-22T09:12:34;4.72;;;4.00;;
27223;SDS011;14965;50.660;13.226;2023-07-22T09:15:01;5.68;;;3.88;;
27223;SDS011;14965;50.660;13.226;2023-07-22T09:17:27;4.35;;;3.55;;
27223;SDS011;14965;50.660;13.226;2023-07-22T09:19:53;7.30;;;3.88;;
27223;SDS011;14965;50.660;13.226;2023-07-22T09:22:25;5.03;;;3.60;;
27223;SDS011;14965;50.660;13.226;2023-07-22T09:24:51;6.60;;;3.63;;
27223;SDS011;14965;50.660;13.226;2023-07-22T09:27:18;4.55;;;3.58;;
27223;SDS011;14965;50.660;13.226;2023-07-22T09:29:58;6.50;;;3.30;;
27223;SDS011;14965;50.660;13.226;2023-07-22T09:32:31;5.35;;;3.47;;
27223;SDS011;14965;50.660;13.226;2023-07-22T09:35:01;5.50;;;3.50;;
27223;SDS011;14965;50.660;13.226;2023-07-22T09:37:36;4.25;;;3.40;;
27223;SDS011;14965;50.660;13.226;2023-07-22T09:40:05;4.82;;;3.03;;
27223;SDS011;14965;50.660;13.226;2023-07-22T09:42:40;3.63;;;3.10;;
27223;SDS011;14965;50.660;13.226;2023-07-22T09:47:39;5.85;;;3.22;;
27223;SDS011;14965;50.660;13.226;2023-07-22T09:50:06;3.65;;;3.17;;
27223;SDS011;14965;50.660;13.226;2023-07-22T09:52:38;8.38;;;3.13;;
27223;SDS011;14965;50.660;13.226;2023-07-22T09:55:09;5.85;;;3.28;;
27223;SDS011;14965;50.660;13.226;2023-07-22T09:57:35;6.25;;;3.30;;
27223;SDS011;14965;50.660;13.226;2023-07-22T10:00:03;7.38;;;3.00;;
27223;SDS011;14965;50.660;13.226;2023-07-22T10:02:30;7.65;;;3.20;;
27223;SDS011;14965;50.660;13.226;2023-07-22T10:04:58;4.53;;;2.72;;
27223;SDS011;14965;50.660;13.226;2023-07-22T10:07:27;4.60;;;3.10;;
27223;SDS011;14965;50.660;13.226;2023-07-22T10:09:56;5.05;;;2.78;;
27223;SDS011;14965;50.660;13.226;2023-07-22T10:12:23;6.15;;;3.22;;
27223;SDS011;14965;50.660;13.226;2023-07-22T10:17:18;4.40;;;2.72;;
27223;SDS011;14965;50.660;13.226;2023-07-22T10:19:46;7.43;;;3.33;;
27223;SDS011;14965;50.660;13.226;2023-07-22T10:22:14;4.13;;;2.83;;
27223;SDS011;14965;50.660;13.226;2023-07-22T10:24:40;4.10;;;3.17;;
27223;SDS011;14965;50.660;13.226;2023-07-22T10:27:08;5.93;;;3.10;;
27223;SDS011;14965;50.660;13.226;2023-07-22T10:29:36;5.22;;;3.17;;
27223;SDS011;14965;50.660;13.226;2023-07-22T10:32:03;5.40;;;3.67;;
27223;SDS011;14965;50.660;13.226;2023-07-22T10:34:30;4.25;;;3.15;;
27223;SDS011;14965;50.660;13.226;2023-07-22T10:36:56;5.63;;;3.30;;
27223;SDS011;14965;50.660;13.226;2023-07-22T10:39:25;9.20;;;3.42;;
27223;SDS011;14965;50.660;13.226;2023-07-22T10:41:57;6.07;;;3.25;;
27223;SDS011;14965;50.660;13.226;2023-07-22T10:44:27;10.85;;;3.50;;
27223;SDS011;14965;50.660;13.226;2023-07-22T10:46:56;4.43;;;3.30;;
27223;SDS011;14965;50.660;13.226;2023-07-22T10:49:23;9.15;;;3.20;;
27223;SDS011;14965;50.660;13.226;2023-07-22T10:52:07;4.63;;;3.50;;
27223;SDS011;14965;50.660;13.226;2023-07-22T10:54:36;5.10;;;3.38;;
27223;SDS011;14965;50.660;13.226;2023-07-22T10:57:02;6.55;;;3.45;;
27223;SDS011;14965;50.660;13.226;2023-07-22T10:59:32;5.28;;;3.60;;
27223;SDS011;14965;50.660;13.226;2023-07-22T11:01:58;3.78;;;3.28;;
27223;SDS011;14965;50.660;13.226;2023-07-22T11:04:24;8.43;;;3.60;;
27223;SDS011;14965;50.660;13.226;2023-07-22T11:06:52;7.75;;;3.63;;
27223;SDS011;14965;50.660;13.226;2023-07-22T11:09:35;5.57;;;3.75;;
27223;SDS011;14965;50.660;13.226;2023-07-22T11:12:05;4.65;;;3.60;;
27223;SDS011;14965;50.660;13.226;2023-07-22T11:14:35;5.97;;;3.60;;
27223;SDS011;14965;50.660;13.226;2023-07-22T11:17:05;5.05;;;3.70;;
27223;SDS011;14965;50.660;13.226;2023-07-22T11:19:32;5.82;;;3.33;;
27223;SDS011;14965;50.660;13.226;2023-07-22T11:21:59;6.82;;;3.50;;
27223;SDS011;14965;50.660;13.226;2023-07-22T11:24:26;5.65;;;3.70;;
27223;SDS011;14965;50.660;13.226;2023-07-22T11:26:52;5.38;;;3.40;;
27223;SDS011;14965;50.660;13.226;2023-07-22T11:29:19;6.57;;;3.40;;
27223;SDS011;14965;50.660;13.226;2023-07-22T11:31:47;5.07;;;3.35;;
27223;SDS011;14965;50.660;13.226;2023-07-22T11:34:16;5.28;;;3.75;;
27223;SDS011;14965;50.660;13.226;2023-07-22T11:36:44;5.80;;;3.58;;
27223;SDS011;14965;50.660;13.226;2023-07-22T11:39:15;3.92;;;3.20;;
27223;SDS011;14965;50.660;13.226;2023-07-22T11:41:43;5.35;;;3.40;;
27223;SDS011;14965;50.660;13.226;2023-07-22T11:44:11;5.13;;;3.63;;
27223;SDS011;14965;50.660;13.226;2023-07-22T11:46:49;5.55;;;3.92;;
27223;SDS011;14965;50.660;13.226;2023-07-22T11:49:22;5.00;;;3.53;;
27223;SDS011;14965;50.660;13.226;2023-07-22T11:51:53;5.75;;;3.35;;
27223;SDS011;14965;50.660;13.226;2023-07-22T11:54:22;5.32;;;3.80;;
27223;SDS011;14965;50.660;13.226;2023-07-22T11:56:48;4.35;;;3.55;;
27223;SDS011;14965;50.660;13.226;2023-07-22T11:59:14;5.15;;;3.47;;
27223;SDS011;14965;50.660;13.226;2023-07-22T12:01:42;7.68;;;3.58;;
27223;SDS011;14965;50.660;13.226;2023-07-22T12:04:11;4.40;;;3.72;;
27223;SDS011;14965;50.660;13.226;2023-07-22T12:09:06;6.20;;;3.50;;
27223;SDS011;14965;50.660;13.226;2023-07-22T12:11:33;4.22;;;3.60;;
27223;SDS011;14965;50.660;13.226;2023-07-22T12:14:08;5.63;;;3.55;;
27223;SDS011;14965;50.660;13.226;2023-07-22T12:16:36;4.45;;;3.45;;
27223;SDS011;14965;50.660;13.226;2023-07-22T12:19:05;5.13;;;3.78;;
27223;SDS011;14965;50.660;13.226;2023-07-22T12:21:33;7.35;;;3.80;;
27223;SDS011;14965;50.660;13.226;2023-07-22T12:24:01;5.07;;;3.63;;
27223;SDS011;14965;50.660;13.226;2023-07-22T12:26:27;6.32;;;3.63;;
27223;SDS011;14965;50.660;13.226;2023-07-22T12:28:53;5.18;;;3.63;;
27223;SDS011;14965;50.660;13.226;2023-07-22T12:31:19;4.80;;;3.70;;
27223;SDS011;14965;50.660;13.226;2023-07-22T12:33:45;5.55;;;3.75;;
27223;SDS011;14965;50.660;13.226;2023-07-22T12:36:11;4.95;;;3.75;;
27223;SDS011;14965;50.660;13.226;2023-07-22T12:38:38;7.13;;;3.67;;
27223;SDS011;14965;50.660;13.226;2023-07-22T12:41:04;4.05;;;3.33;;
27223;SDS011;14965;50.660;13.226;2023-07-22T12:43:30;5.45;;;3.90;;
27223;SDS011;14965;50.660;13.226;2023-07-22T12:45:56;4.55;;;4.05;;
27223;SDS011;14965;50.660;13.226;2023-07-22T12:48:22;5.93;;;4.00;;
27223;SDS011;14965;50.660;13.226;2023-07-22T12:50:48;5.45;;;3.90;;
27223;SDS011;14965;50.660;13.226;2023-07-22T12:53:14;7.43;;;3.85;;
27223;SDS011;14965;50.660;13.226;2023-07-22T12:55:41;5.88;;;3.70;;
27223;SDS011;14965;50.660;13.226;2023-07-22T12:58:07;5.95;;;3.63;;
27223;SDS011;14965;50.660;13.226;2023-07-22T13:00:33;8.32;;;3.70;;
27223;SDS011;14965;50.660;13.226;2023-07-22T13:02:59;5.45;;;3.85;;
27223;SDS011;14965;50.660;13.226;2023-07-22T13:05:25;4.78;;;3.85;;
27223;SDS011;14965;50.660;13.226;2023-07-22T13:07:51;4.82;;;3.72;;
27223;SDS011;14965;50.660;13.226;2023-07-22T13:10:17;5.47;;;3.53;;
27223;SDS011;14965;50.660;13.226;2023-07-22T13:12:44;4.93;;;3.50;;
27223;SDS011;14965;50.660;13.226;2023-07-22T13:15:10;4.25;;;3.42;;
27223;SDS011;14965;50.660;13.226;2023-07-22T13:17:36;14.13;;;3.72;;
27223;SDS011;14965;50.660;13.226;2023-07-22T13:20:03;5.00;;;3.45;;
27223;SDS011;14965;50.660;13.226;2023-07-22T13:22:29;5.10;;;3.60;;
27223;SDS011;14965;50.660;13.226;2023-07-22T13:24:55;5.97;;;3.78;;
27223;SDS011;14965;50.660;13.226;2023-07-22T13:27:21;4.45;;;3.60;;
27223;SDS011;14965;50.660;13.226;2023-07-22T13:29:48;4.72;;;3.88;;
27223;SDS011;14965;50.660;13.226;2023-07-22T13:32:14;8.48;;;3.50;;
27223;SDS011;14965;50.660;13.226;2023-07-22T13:34:40;7.47;;;3.35;;
27223;SDS011;14965;50.660;13.226;2023-07-22T13:37:06;5.32;;;3.70;;
27223;SDS011;14965;50.660;13.226;2023-07-22T13:39:32;7.28;;;3.80;;
27223;SDS011;14965;50.660;13.226;2023-07-22T13:41:58;6.97;;;4.03;;
27223;SDS011;14965;50.660;13.226;2023-07-22T13:44:24;5.32;;;3.80;;
27223;SDS011;14965;50.660;13.226;2023-07-22T13:46:53;5.50;;;3.60;;
27223;SDS011;14965;50.660;13.226;2023-07-22T13:49:19;3.78;;;3.35;;
27223;SDS011;14965;50.660;13.226;2023-07-22T13:51:45;10.30;;;3.60;;
27223;SDS011;14965;50.660;13.226;2023-07-22T13:54:11;5.95;;;3.88;;
27223;SDS011;14965;50.660;13.226;2023-07-22T13:56:37;8.38;;;4.00;;
27223;SDS011;14965;50.660;13.226;2023-07-22T13:59:03;24.02;;;6.78;;
27223;SDS011;14965;50.660;13.226;2023-07-22T14:01:29;22.55;;;5.82;;
27223;SDS011;14965;50.660;13.226;2023-07-22T14:03:57;20.58;;;7.40;;
27223;SDS011;14965;50.660;13.226;2023-07-22T14:06:23;8.68;;;4.45;;
27223;SDS011;14965;50.660;13.226;2023-07-22T14:08:49;9.27;;;4.30;;
27223;SDS011;14965;50.660;13.226;2023-07-22T14:11:15;8.48;;;4.10;;
27223;SDS011;14965;50.660;13.226;2023-07-22T14:13:41;6.57;;;4.18;;
27223;SDS011;14965;50.660;13.226;2023-07-22T14:16:07;5.90;;;4.88;;
27223;SDS011;14965;50.660;13.226;2023-07-22T14:18:33;4.72;;;4.00;;
27223;SDS011;14965;50.660;13.226;2023-07-22T14:21:00;7.25;;;3.90;;
27223;SDS011;14965;50.660;13.226;2023-07-22T14:23:27;8.57;;;4.55;;
27223;SDS011;14965;50.660;13.226;2023-07-22T14:25:58;7.82;;;4.53;;
27223;SDS011;14965;50.660;13.226;2023-07-22T14:28:25;7.65;;;4.30;;
27223;SDS011;14965;50.660;13.226;2023-07-22T14:30:51;6.07;;;4.13;;
27223;SDS011;14965;50.660;13.226;2023-07-22T14:33:17;6.25;;;4.63;;
27223;SDS011;14965;50.660;13.226;2023-07-22T14:35:43;6.85;;;4.35;;